sensor_id;sensor_type;location;lat;lon;timestamp;temperature;humidity
16968;DHT22;64862;54.398;10.126;2022-12-07T00:00:15;3.60;99.90
16968;DHT22;64862;54.398;10.126;2022-12-07T00:02:43;3.60;99.90
16968;DHT22;64862;54.398;10.126;2022-12-07T00:05:10;3.70;99.90
16968;DHT22;64862;54.398;10.126;2022-12-07T00:07:37;3.70;99.90
16968;DHT22;64862;54.398;10.126;2022-12-07T00:10:05;3.80;99.90
16968;DHT22;64862;54.398;10.126;2022-12-07T00:12:33;3.80;99.90
16968;DHT22;64862;54.398;10.126;2022-12-07T00:15:02;3.80;99.90
16968;DHT22;64862;54.398;10.126;2022-12-07T00:17:29;3.90;99.90
16968;DHT22;64862;54.398;10.126;2022-12-07T00:19:57;3.90;99.90
16968;DHT22;64862;54.398;10.126;2022-12-07T00:22:24;4.00;99.90
16968;DHT22;64862;54.398;10.126;2022-12-07T00:24:51;4.00;99.90
16968;DHT22;64862;54.398;10.126;2022-12-07T00:27:18;4.20;99.90
16968;DHT22;64862;54.398;10.126;2022-12-07T00:29:45;4.20;99.90
16968;DHT22;64862;54.398;10.126;2022-12-07T00:32:12;4.10;99.90
16968;DHT22;64862;54.398;10.126;2022-12-07T00:34:39;4.00;99.90
16968;DHT22;64862;54.398;10.126;2022-12-07T00:37:09;4.00;99.90
16968;DHT22;64862;54.398;10.126;2022-12-07T00:39:38;3.90;99.90
16968;DHT22;64862;54.398;10.126;2022-12-07T00:42:05;3.90;99.90
16968;DHT22;64862;54.398;10.126;2022-12-07T00:44:32;3.80;99.90
16968;DHT22;64862;54.398;10.126;2022-12-07T00:46:59;3.70;99.90
16968;DHT22;64862;54.398;10.126;2022-12-07T00:49:26;3.90;99.90
16968;DHT22;64862;54.398;10.126;2022-12-07T00:51:55;4.00;99.90
16968;DHT22;64862;54.398;10.126;2022-12-07T00:54:24;4.00;99.90
16968;DHT22;64862;54.398;10.126;2022-12-07T00:56:51;4.00;99.90
16968;DHT22;64862;54.398;10.126;2022-12-07T00:59:18;4.00;99.90
16968;DHT22;64862;54.398;10.126;2022-12-07T01:01:45;4.00;99.90
16968;DHT22;64862;54.398;10.126;2022-12-07T01:04:12;3.90;99.90
16968;DHT22;64862;54.398;10.126;2022-12-07T01:06:41;3.90;99.90
16968;DHT22;64862;54.398;10.126;2022-12-07T01:09:08;3.90;99.90
16968;DHT22;64862;54.398;10.126;2022-12-07T01:11:36;3.90;99.90
16968;DHT22;64862;54.398;10.126;2022-12-07T01:14:03;3.80;99.90
16968;DHT22;64862;54.398;10.126;2022-12-07T01:16:32;3.80;99.90
16968;DHT22;64862;54.398;10.126;2022-12-07T01:19:00;3.80;99.90
16968;DHT22;64862;54.398;10.126;2022-12-07T01:21:29;3.90;99.90
16968;DHT22;64862;54.398;10.126;2022-12-07T01:23:58;3.90;99.90
16968;DHT22;64862;54.398;10.126;2022-12-07T01:26:25;4.00;99.90
16968;DHT22;64862;54.398;10.126;2022-12-07T01:28:54;4.00;99.90
16968;DHT22;64862;54.398;10.126;2022-12-07T01:31:23;4.00;99.90
16968;DHT22;64862;54.398;10.126;2022-12-07T01:33:54;4.10;99.90
16968;DHT22;64862;54.398;10.126;2022-12-07T01:36:22;4.10;99.90
16968;DHT22;64862;54.398;10.126;2022-12-07T01:38:51;4.20;99.90
16968;DHT22;64862;54.398;10.126;2022-12-07T01:41:20;4.10;99.90
16968;DHT22;64862;54.398;10.126;2022-12-07T01:44:15;4.10;99.90
16968;DHT22;64862;54.398;10.126;2022-12-07T01:46:44;4.20;99.90
16968;DHT22;64862;54.398;10.126;2022-12-07T01:49:16;4.10;99.90
16968;DHT22;64862;54.398;10.126;2022-12-07T01:51:45;4.10;99.90
16968;DHT22;64862;54.398;10.126;2022-12-07T01:54:14;4.20;99.90
16968;DHT22;64862;54.398;10.126;2022-12-07T01:56:46;4.30;99.90
16968;DHT22;64862;54.398;10.126;2022-12-07T01:59:17;4.20;99.90
16968;DHT22;64862;54.398;10.126;2022-12-07T02:01:44;4.30;99.90
16968;DHT22;64862;54.398;10.126;2022-12-07T02:04:12;4.30;99.90
16968;DHT22;64862;54.398;10.126;2022-12-07T02:06:39;4.30;99.90
16968;DHT22;64862;54.398;10.126;2022-12-07T02:09:07;4.30;99.90
16968;DHT22;64862;54.398;10.126;2022-12-07T02:11:34;4.30;99.90
16968;DHT22;64862;54.398;10.126;2022-12-07T02:14:02;4.30;99.90
16968;DHT22;64862;54.398;10.126;2022-12-07T02:16:36;4.30;99.90
16968;DHT22;64862;54.398;10.126;2022-12-07T02:19:32;4.30;99.90
16968;DHT22;64862;54.398;10.126;2022-12-07T02:22:16;4.30;99.90
16968;DHT22;64862;54.398;10.126;2022-12-07T02:24:49;4.30;99.90
16968;DHT22;64862;54.398;10.126;2022-12-07T02:27:36;4.40;99.90
16968;DHT22;64862;54.398;10.126;2022-12-07T02:30:12;4.40;99.90
16968;DHT22;64862;54.398;10.126;2022-12-07T02:32:44;4.40;99.90
16968;DHT22;64862;54.398;10.126;2022-12-07T02:35:18;4.40;99.90
16968;DHT22;64862;54.398;10.126;2022-12-07T02:37:55;4.30;99.90
16968;DHT22;64862;54.398;10.126;2022-12-07T02:40:31;4.20;99.90
16968;DHT22;64862;54.398;10.126;2022-12-07T02:43:04;4.10;99.90
16968;DHT22;64862;54.398;10.126;2022-12-07T02:45:35;4.00;99.90
16968;DHT22;64862;54.398;10.126;2022-12-07T02:48:04;4.10;99.90
16968;DHT22;64862;54.398;10.126;2022-12-07T02:50:33;4.10;99.90
16968;DHT22;64862;54.398;10.126;2022-12-07T02:53:00;4.10;99.90
16968;DHT22;64862;54.398;10.126;2022-12-07T02:55:33;4.10;99.90
16968;DHT22;64862;54.398;10.126;2022-12-07T02:58:13;4.10;99.90
16968;DHT22;64862;54.398;10.126;2022-12-07T03:00:52;4.10;99.90
16968;DHT22;64862;54.398;10.126;2022-12-07T03:03:22;4.10;99.90
16968;DHT22;64862;54.398;10.126;2022-12-07T03:06:07;4.10;99.90
16968;DHT22;64862;54.398;10.126;2022-12-07T03:08:43;4.10;99.90
16968;DHT22;64862;54.398;10.126;2022-12-07T03:11:13;4.10;99.90
16968;DHT22;64862;54.398;10.126;2022-12-07T03:13:47;4.10;99.90
16968;DHT22;64862;54.398;10.126;2022-12-07T03:16:18;4.10;99.90
16968;DHT22;64862;54.398;10.126;2022-12-07T03:18:50;4.10;99.90
16968;DHT22;64862;54.398;10.126;2022-12-07T03:21:20;4.10;99.90
16968;DHT22;64862;54.398;10.126;2022-12-07T03:23:51;4.10;99.90
16968;DHT22;64862;54.398;10.126;2022-12-07T03:26:30;4.10;99.90
16968;DHT22;64862;54.398;10.126;2022-12-07T03:29:02;4.10;99.90
16968;DHT22;64862;54.398;10.126;2022-12-07T03:31:37;4.10;99.90
16968;DHT22;64862;54.398;10.126;2022-12-07T03:34:10;4.10;99.90
16968;DHT22;64862;54.398;10.126;2022-12-07T03:36:41;4.20;99.90
16968;DHT22;64862;54.398;10.126;2022-12-07T03:39:19;4.20;99.90
16968;DHT22;64862;54.398;10.126;2022-12-07T03:41:49;4.20;99.90
16968;DHT22;64862;54.398;10.126;2022-12-07T03:44:17;4.20;99.90
16968;DHT22;64862;54.398;10.126;2022-12-07T03:46:50;4.10;99.90
16968;DHT22;64862;54.398;10.126;2022-12-07T03:49:23;4.10;99.90
16968;DHT22;64862;54.398;10.126;2022-12-07T03:51:55;4.10;99.90
16968;DHT22;64862;54.398;10.126;2022-12-07T03:54:28;4.10;99.90
16968;DHT22;64862;54.398;10.126;2022-12-07T03:56:57;4.10;99.90
16968;DHT22;64862;54.398;10.126;2022-12-07T03:59:25;4.20;99.90
16968;DHT22;64862;54.398;10.126;2022-12-07T04:02:01;4.20;99.90
16968;DHT22;64862;54.398;10.126;2022-12-07T04:04:28;4.10;99.90
16968;DHT22;64862;54.398;10.126;2022-12-07T04:06:55;4.20;99.90
16968;DHT22;64862;54.398;10.126;2022-12-07T04:09:22;4.20;99.90
16968;DHT22;64862;54.398;10.126;2022-12-07T04:11:49;4.20;99.90
16968;DHT22;64862;54.398;10.126;2022-12-07T04:14:17;4.10;99.90
16968;DHT22;64862;54.398;10.126;2022-12-07T04:16:47;4.00;99.90
16968;DHT22;64862;54.398;10.126;2022-12-07T04:19:20;4.10;99.90
16968;DHT22;64862;54.398;10.126;2022-12-07T04:21:47;4.00;99.90
16968;DHT22;64862;54.398;10.126;2022-12-07T04:24:15;3.90;99.90
16968;DHT22;64862;54.398;10.126;2022-12-07T04:26:43;3.80;99.90
16968;DHT22;64862;54.398;10.126;2022-12-07T04:29:14;3.70;99.90
16968;DHT22;64862;54.398;10.126;2022-12-07T04:31:42;3.60;99.90
16968;DHT22;64862;54.398;10.126;2022-12-07T04:34:10;3.60;99.90
16968;DHT22;64862;54.398;10.126;2022-12-07T04:36:39;3.60;99.90
16968;DHT22;64862;54.398;10.126;2022-12-07T04:39:07;3.50;99.90
16968;DHT22;64862;54.398;10.126;2022-12-07T04:41:35;3.50;99.90
16968;DHT22;64862;54.398;10.126;2022-12-07T04:44:03;3.50;99.90
16968;DHT22;64862;54.398;10.126;2022-12-07T04:46:33;3.50;99.90
16968;DHT22;64862;54.398;10.126;2022-12-07T04:49:00;3.50;99.90
16968;DHT22;64862;54.398;10.126;2022-12-07T04:51:28;3.50;99.90
16968;DHT22;64862;54.398;10.126;2022-12-07T04:53:57;3.40;99.90
16968;DHT22;64862;54.398;10.126;2022-12-07T04:56:25;3.40;99.90
16968;DHT22;64862;54.398;10.126;2022-12-07T04:58:53;3.30;99.90
16968;DHT22;64862;54.398;10.126;2022-12-07T05:01:21;3.40;99.90
16968;DHT22;64862;54.398;10.126;2022-12-07T05:03:51;3.40;99.90
16968;DHT22;64862;54.398;10.126;2022-12-07T05:06:18;3.30;99.90
16968;DHT22;64862;54.398;10.126;2022-12-07T05:08:45;3.20;99.90
16968;DHT22;64862;54.398;10.126;2022-12-07T05:11:14;3.20;99.90
16968;DHT22;64862;54.398;10.126;2022-12-07T05:13:55;3.10;99.90
16968;DHT22;64862;54.398;10.126;2022-12-07T05:16:22;3.00;99.90
16968;DHT22;64862;54.398;10.126;2022-12-07T05:18:52;2.90;99.90
16968;DHT22;64862;54.398;10.126;2022-12-07T05:21:22;2.80;99.90
16968;DHT22;64862;54.398;10.126;2022-12-07T05:23:49;2.70;99.90
16968;DHT22;64862;54.398;10.126;2022-12-07T05:26:18;2.60;99.90
16968;DHT22;64862;54.398;10.126;2022-12-07T05:28:50;2.60;99.90
16968;DHT22;64862;54.398;10.126;2022-12-07T05:31:17;2.50;99.90
16968;DHT22;64862;54.398;10.126;2022-12-07T05:33:46;2.50;99.90
16968;DHT22;64862;54.398;10.126;2022-12-07T05:36:13;2.60;99.90
16968;DHT22;64862;54.398;10.126;2022-12-07T05:38:40;2.70;99.90
16968;DHT22;64862;54.398;10.126;2022-12-07T05:41:08;2.80;99.90
16968;DHT22;64862;54.398;10.126;2022-12-07T05:43:57;2.90;99.90
16968;DHT22;64862;54.398;10.126;2022-12-07T05:46:24;3.00;99.90
16968;DHT22;64862;54.398;10.126;2022-12-07T05:48:51;3.10;99.90
16968;DHT22;64862;54.398;10.126;2022-12-07T05:51:18;3.20;99.90
16968;DHT22;64862;54.398;10.126;2022-12-07T05:53:45;3.20;99.90
16968;DHT22;64862;54.398;10.126;2022-12-07T05:56:16;3.10;99.90
16968;DHT22;64862;54.398;10.126;2022-12-07T05:58:43;3.10;99.90
16968;DHT22;64862;54.398;10.126;2022-12-07T06:01:33;2.90;99.90
16968;DHT22;64862;54.398;10.126;2022-12-07T06:04:00;2.90;99.90
16968;DHT22;64862;54.398;10.126;2022-12-07T06:06:27;2.80;99.90
16968;DHT22;64862;54.398;10.126;2022-12-07T06:08:56;2.70;99.90
16968;DHT22;64862;54.398;10.126;2022-12-07T06:11:23;2.70;99.90
16968;DHT22;64862;54.398;10.126;2022-12-07T06:14:07;2.60;99.90
16968;DHT22;64862;54.398;10.126;2022-12-07T06:16:35;2.60;99.90
16968;DHT22;64862;54.398;10.126;2022-12-07T06:19:02;2.50;99.90
16968;DHT22;64862;54.398;10.126;2022-12-07T06:21:32;2.50;99.90
16968;DHT22;64862;54.398;10.126;2022-12-07T06:23:59;2.40;99.90
16968;DHT22;64862;54.398;10.126;2022-12-07T06:26:26;2.40;99.90
16968;DHT22;64862;54.398;10.126;2022-12-07T06:28:53;2.30;99.90
16968;DHT22;64862;54.398;10.126;2022-12-07T06:31:20;2.20;99.90
16968;DHT22;64862;54.398;10.126;2022-12-07T06:33:48;2.20;99.90
16968;DHT22;64862;54.398;10.126;2022-12-07T06:36:15;2.20;99.90
16968;DHT22;64862;54.398;10.126;2022-12-07T06:38:44;2.10;99.90
16968;DHT22;64862;54.398;10.126;2022-12-07T06:41:14;2.20;99.90
16968;DHT22;64862;54.398;10.126;2022-12-07T06:43:41;2.10;99.90
16968;DHT22;64862;54.398;10.126;2022-12-07T06:46:08;2.10;99.90
16968;DHT22;64862;54.398;10.126;2022-12-07T06:48:35;2.10;99.90
16968;DHT22;64862;54.398;10.126;2022-12-07T06:51:04;2.00;99.90
16968;DHT22;64862;54.398;10.126;2022-12-07T06:53:31;2.00;99.90
16968;DHT22;64862;54.398;10.126;2022-12-07T06:55:58;2.00;99.90
16968;DHT22;64862;54.398;10.126;2022-12-07T06:58:25;2.10;99.90
16968;DHT22;64862;54.398;10.126;2022-12-07T07:00:52;2.20;99.90
16968;DHT22;64862;54.398;10.126;2022-12-07T07:03:19;2.10;99.90
16968;DHT22;64862;54.398;10.126;2022-12-07T07:05:46;2.20;99.90
16968;DHT22;64862;54.398;10.126;2022-12-07T07:08:15;2.20;99.90
16968;DHT22;64862;54.398;10.126;2022-12-07T07:10:42;2.20;99.90
16968;DHT22;64862;54.398;10.126;2022-12-07T07:13:09;2.20;99.90
16968;DHT22;64862;54.398;10.126;2022-12-07T07:15:38;2.20;99.90
16968;DHT22;64862;54.398;10.126;2022-12-07T07:18:05;2.20;99.90
16968;DHT22;64862;54.398;10.126;2022-12-07T07:20:32;2.30;99.90
16968;DHT22;64862;54.398;10.126;2022-12-07T07:22:59;2.20;99.90
16968;DHT22;64862;54.398;10.126;2022-12-07T07:25:27;2.20;99.90
16968;DHT22;64862;54.398;10.126;2022-12-07T07:27:54;2.10;99.90
16968;DHT22;64862;54.398;10.126;2022-12-07T07:30:21;2.00;99.90
16968;DHT22;64862;54.398;10.126;2022-12-07T07:32:48;2.00;99.90
16968;DHT22;64862;54.398;10.126;2022-12-07T07:35:15;2.00;99.90
16968;DHT22;64862;54.398;10.126;2022-12-07T07:37:42;2.00;99.90
16968;DHT22;64862;54.398;10.126;2022-12-07T07:40:10;2.00;99.90
16968;DHT22;64862;54.398;10.126;2022-12-07T07:42:38;2.10;99.90
16968;DHT22;64862;54.398;10.126;2022-12-07T07:45:06;2.10;99.90
16968;DHT22;64862;54.398;10.126;2022-12-07T07:47:34;2.10;99.90
16968;DHT22;64862;54.398;10.126;2022-12-07T07:50:01;2.10;99.90
16968;DHT22;64862;54.398;10.126;2022-12-07T07:52:28;2.10;99.90
16968;DHT22;64862;54.398;10.126;2022-12-07T07:54:58;2.20;99.90
16968;DHT22;64862;54.398;10.126;2022-12-07T07:57:27;2.20;99.90
16968;DHT22;64862;54.398;10.126;2022-12-07T07:59:56;2.30;99.90
16968;DHT22;64862;54.398;10.126;2022-12-07T08:02:25;2.40;99.90
16968;DHT22;64862;54.398;10.126;2022-12-07T08:04:55;2.60;99.90
16968;DHT22;64862;54.398;10.126;2022-12-07T08:07:22;2.80;99.90
16968;DHT22;64862;54.398;10.126;2022-12-07T08:09:49;2.90;99.90
16968;DHT22;64862;54.398;10.126;2022-12-07T08:12:16;2.90;99.90
16968;DHT22;64862;54.398;10.126;2022-12-07T08:14:43;3.00;99.90
16968;DHT22;64862;54.398;10.126;2022-12-07T08:17:14;3.00;99.90
16968;DHT22;64862;54.398;10.126;2022-12-07T08:19:44;3.10;99.90
16968;DHT22;64862;54.398;10.126;2022-12-07T08:22:11;3.10;99.90
16968;DHT22;64862;54.398;10.126;2022-12-07T08:24:38;3.10;99.90
16968;DHT22;64862;54.398;10.126;2022-12-07T08:27:05;3.10;99.90
16968;DHT22;64862;54.398;10.126;2022-12-07T08:29:32;3.10;99.90
16968;DHT22;64862;54.398;10.126;2022-12-07T08:31:59;3.10;99.90
16968;DHT22;64862;54.398;10.126;2022-12-07T08:34:28;3.20;99.90
16968;DHT22;64862;54.398;10.126;2022-12-07T08:36:55;3.30;99.90
16968;DHT22;64862;54.398;10.126;2022-12-07T08:39:22;3.50;99.90
16968;DHT22;64862;54.398;10.126;2022-12-07T08:41:49;3.40;99.90
16968;DHT22;64862;54.398;10.126;2022-12-07T08:44:16;3.50;99.90
16968;DHT22;64862;54.398;10.126;2022-12-07T08:46:46;3.50;99.90
16968;DHT22;64862;54.398;10.126;2022-12-07T08:49:17;3.60;99.90
16968;DHT22;64862;54.398;10.126;2022-12-07T08:51:48;3.70;99.90
16968;DHT22;64862;54.398;10.126;2022-12-07T08:54:17;3.70;99.90
16968;DHT22;64862;54.398;10.126;2022-12-07T08:56:46;3.70;99.90
16968;DHT22;64862;54.398;10.126;2022-12-07T08:59:15;3.70;99.90
16968;DHT22;64862;54.398;10.126;2022-12-07T09:01:44;3.80;99.90
16968;DHT22;64862;54.398;10.126;2022-12-07T09:04:11;3.80;99.90
16968;DHT22;64862;54.398;10.126;2022-12-07T09:06:38;3.90;99.90
16968;DHT22;64862;54.398;10.126;2022-12-07T09:09:08;3.90;99.90
16968;DHT22;64862;54.398;10.126;2022-12-07T09:11:36;3.90;99.90
16968;DHT22;64862;54.398;10.126;2022-12-07T09:14:03;3.90;99.90
16968;DHT22;64862;54.398;10.126;2022-12-07T09:16:30;3.90;99.90
16968;DHT22;64862;54.398;10.126;2022-12-07T09:18:57;3.90;99.90
16968;DHT22;64862;54.398;10.126;2022-12-07T09:21:24;4.00;99.90
16968;DHT22;64862;54.398;10.126;2022-12-07T09:23:51;4.10;99.90
16968;DHT22;64862;54.398;10.126;2022-12-07T09:26:19;4.20;99.90
16968;DHT22;64862;54.398;10.126;2022-12-07T09:28:46;4.10;99.90
16968;DHT22;64862;54.398;10.126;2022-12-07T09:31:13;4.00;99.90
16968;DHT22;64862;54.398;10.126;2022-12-07T09:33:40;4.00;99.90
16968;DHT22;64862;54.398;10.126;2022-12-07T09:36:08;4.10;99.90
16968;DHT22;64862;54.398;10.126;2022-12-07T09:38:37;4.20;99.90
16968;DHT22;64862;54.398;10.126;2022-12-07T09:41:05;4.30;99.90
16968;DHT22;64862;54.398;10.126;2022-12-07T09:43:35;4.30;99.90
16968;DHT22;64862;54.398;10.126;2022-12-07T09:46:06;4.40;99.90
16968;DHT22;64862;54.398;10.126;2022-12-07T09:48:35;4.40;99.90
16968;DHT22;64862;54.398;10.126;2022-12-07T09:51:14;4.30;99.90
16968;DHT22;64862;54.398;10.126;2022-12-07T09:53:42;4.20;99.90
16968;DHT22;64862;54.398;10.126;2022-12-07T09:56:11;4.30;99.90
16968;DHT22;64862;54.398;10.126;2022-12-07T09:58:41;4.30;99.90
16968;DHT22;64862;54.398;10.126;2022-12-07T10:01:12;4.40;99.90
16968;DHT22;64862;54.398;10.126;2022-12-07T10:03:42;4.40;99.90
16968;DHT22;64862;54.398;10.126;2022-12-07T10:06:12;4.40;99.90
16968;DHT22;64862;54.398;10.126;2022-12-07T10:08:39;4.40;99.90
16968;DHT22;64862;54.398;10.126;2022-12-07T10:11:09;4.40;99.90
16968;DHT22;64862;54.398;10.126;2022-12-07T10:13:40;4.50;99.90
16968;DHT22;64862;54.398;10.126;2022-12-07T10:16:35;4.40;99.90
16968;DHT22;64862;54.398;10.126;2022-12-07T10:19:23;4.40;99.90
16968;DHT22;64862;54.398;10.126;2022-12-07T10:22:02;4.40;99.90
16968;DHT22;64862;54.398;10.126;2022-12-07T10:24:30;4.30;99.90
16968;DHT22;64862;54.398;10.126;2022-12-07T10:27:00;4.30;99.90
16968;DHT22;64862;54.398;10.126;2022-12-07T10:29:31;4.30;99.90
16968;DHT22;64862;54.398;10.126;2022-12-07T10:32:01;4.40;99.90
16968;DHT22;64862;54.398;10.126;2022-12-07T10:34:31;4.40;99.90
16968;DHT22;64862;54.398;10.126;2022-12-07T10:37:15;4.40;99.90
16968;DHT22;64862;54.398;10.126;2022-12-07T10:39:45;4.40;99.90
16968;DHT22;64862;54.398;10.126;2022-12-07T10:42:18;4.50;99.90
16968;DHT22;64862;54.398;10.126;2022-12-07T10:44:47;4.70;99.90
16968;DHT22;64862;54.398;10.126;2022-12-07T10:47:31;4.60;99.90
16968;DHT22;64862;54.398;10.126;2022-12-07T10:50:30;4.80;99.90
16968;DHT22;64862;54.398;10.126;2022-12-07T10:56:15;4.80;99.90
16968;DHT22;64862;54.398;10.126;2022-12-07T10:58:57;4.80;99.90
16968;DHT22;64862;54.398;10.126;2022-12-07T11:01:31;4.80;99.90
16968;DHT22;64862;54.398;10.126;2022-12-07T11:04:17;4.80;99.90
16968;DHT22;64862;54.398;10.126;2022-12-07T11:06:49;4.80;99.90
16968;DHT22;64862;54.398;10.126;2022-12-07T11:09:43;4.80;99.90
16968;DHT22;64862;54.398;10.126;2022-12-07T11:12:24;4.80;99.90
16968;DHT22;64862;54.398;10.126;2022-12-07T11:14:58;4.70;99.90
16968;DHT22;64862;54.398;10.126;2022-12-07T11:17:35;4.60;99.90
16968;DHT22;64862;54.398;10.126;2022-12-07T11:20:15;4.80;99.90
16968;DHT22;64862;54.398;10.126;2022-12-07T11:22:52;4.90;99.90
16968;DHT22;64862;54.398;10.126;2022-12-07T11:25:26;5.00;99.90
16968;DHT22;64862;54.398;10.126;2022-12-07T11:28:11;5.10;99.90
16968;DHT22;64862;54.398;10.126;2022-12-07T11:30:49;5.10;99.90
16968;DHT22;64862;54.398;10.126;2022-12-07T11:33:20;5.10;99.90
16968;DHT22;64862;54.398;10.126;2022-12-07T11:36:04;5.10;99.90
16968;DHT22;64862;54.398;10.126;2022-12-07T11:38:41;5.20;99.90
16968;DHT22;64862;54.398;10.126;2022-12-07T11:41:10;5.20;99.90
16968;DHT22;64862;54.398;10.126;2022-12-07T11:44:05;5.10;99.90
16968;DHT22;64862;54.398;10.126;2022-12-07T11:46:45;5.10;99.90
16968;DHT22;64862;54.398;10.126;2022-12-07T11:49:19;5.00;99.90
16968;DHT22;64862;54.398;10.126;2022-12-07T11:51:50;5.00;99.90
16968;DHT22;64862;54.398;10.126;2022-12-07T11:54:23;5.00;99.90
16968;DHT22;64862;54.398;10.126;2022-12-07T11:56:51;5.00;99.90
16968;DHT22;64862;54.398;10.126;2022-12-07T11:59:23;5.10;99.90
16968;DHT22;64862;54.398;10.126;2022-12-07T12:01:57;5.10;99.90
16968;DHT22;64862;54.398;10.126;2022-12-07T12:04:35;5.10;99.90
16968;DHT22;64862;54.398;10.126;2022-12-07T12:07:06;5.10;99.90
16968;DHT22;64862;54.398;10.126;2022-12-07T12:09:35;5.00;99.90
16968;DHT22;64862;54.398;10.126;2022-12-07T12:12:19;5.00;99.90
16968;DHT22;64862;54.398;10.126;2022-12-07T12:15:01;5.00;99.90
16968;DHT22;64862;54.398;10.126;2022-12-07T12:17:58;4.90;99.90
16968;DHT22;64862;54.398;10.126;2022-12-07T12:20:32;4.80;99.90
16968;DHT22;64862;54.398;10.126;2022-12-07T12:23:07;4.70;99.90
16968;DHT22;64862;54.398;10.126;2022-12-07T12:25:41;4.70;99.90
16968;DHT22;64862;54.398;10.126;2022-12-07T12:28:25;4.60;99.90
16968;DHT22;64862;54.398;10.126;2022-12-07T12:31:10;4.60;99.90
16968;DHT22;64862;54.398;10.126;2022-12-07T12:33:43;4.70;99.90
16968;DHT22;64862;54.398;10.126;2022-12-07T12:36:23;4.60;99.90
16968;DHT22;64862;54.398;10.126;2022-12-07T12:39:07;4.70;99.90
16968;DHT22;64862;54.398;10.126;2022-12-07T12:41:57;4.50;99.90
16968;DHT22;64862;54.398;10.126;2022-12-07T12:47:42;4.40;99.90
16968;DHT22;64862;54.398;10.126;2022-12-07T12:50:18;4.30;99.90
16968;DHT22;64862;54.398;10.126;2022-12-07T12:53:02;4.30;99.90
16968;DHT22;64862;54.398;10.126;2022-12-07T12:58:39;4.30;99.90
16968;DHT22;64862;54.398;10.126;2022-12-07T13:04:30;4.20;99.90
16968;DHT22;64862;54.398;10.126;2022-12-07T13:07:02;4.20;99.90
16968;DHT22;64862;54.398;10.126;2022-12-07T13:09:34;4.20;99.90
16968;DHT22;64862;54.398;10.126;2022-12-07T13:12:04;4.10;99.90
16968;DHT22;64862;54.398;10.126;2022-12-07T13:14:55;4.10;99.90
16968;DHT22;64862;54.398;10.126;2022-12-07T13:17:59;4.00;99.90
16968;DHT22;64862;54.398;10.126;2022-12-07T13:20:47;4.00;99.90
16968;DHT22;64862;54.398;10.126;2022-12-07T13:23:29;3.90;99.90
16968;DHT22;64862;54.398;10.126;2022-12-07T13:26:13;4.00;99.90
16968;DHT22;64862;54.398;10.126;2022-12-07T13:28:43;4.00;99.90
16968;DHT22;64862;54.398;10.126;2022-12-07T13:31:30;4.00;99.90
16968;DHT22;64862;54.398;10.126;2022-12-07T13:33:58;4.00;99.90
16968;DHT22;64862;54.398;10.126;2022-12-07T13:36:27;4.00;99.90
16968;DHT22;64862;54.398;10.126;2022-12-07T13:38:58;3.90;99.90
16968;DHT22;64862;54.398;10.126;2022-12-07T13:41:29;3.90;99.90
16968;DHT22;64862;54.398;10.126;2022-12-07T13:44:00;3.80;99.90
16968;DHT22;64862;54.398;10.126;2022-12-07T13:46:40;3.70;99.90
16968;DHT22;64862;54.398;10.126;2022-12-07T13:49:17;3.60;99.90
16968;DHT22;64862;54.398;10.126;2022-12-07T13:51:45;3.60;99.90
16968;DHT22;64862;54.398;10.126;2022-12-07T13:54:13;3.70;99.90
16968;DHT22;64862;54.398;10.126;2022-12-07T13:56:42;3.60;99.90
16968;DHT22;64862;54.398;10.126;2022-12-07T13:59:14;3.60;99.90
16968;DHT22;64862;54.398;10.126;2022-12-07T14:01:42;3.60;99.90
16968;DHT22;64862;54.398;10.126;2022-12-07T14:04:33;3.60;99.90
16968;DHT22;64862;54.398;10.126;2022-12-07T14:07:01;3.50;99.90
16968;DHT22;64862;54.398;10.126;2022-12-07T14:09:54;3.60;99.90
16968;DHT22;64862;54.398;10.126;2022-12-07T14:12:24;3.60;99.90
16968;DHT22;64862;54.398;10.126;2022-12-07T14:14:52;3.60;99.90
16968;DHT22;64862;54.398;10.126;2022-12-07T14:17:21;3.50;99.90
16968;DHT22;64862;54.398;10.126;2022-12-07T14:19:51;3.50;99.90
16968;DHT22;64862;54.398;10.126;2022-12-07T14:22:28;3.50;99.90
16968;DHT22;64862;54.398;10.126;2022-12-07T14:25:14;3.50;99.90
16968;DHT22;64862;54.398;10.126;2022-12-07T14:27:49;3.50;99.90
16968;DHT22;64862;54.398;10.126;2022-12-07T14:30:22;3.50;99.90
16968;DHT22;64862;54.398;10.126;2022-12-07T14:32:52;3.60;99.90
16968;DHT22;64862;54.398;10.126;2022-12-07T14:35:21;3.60;99.90
16968;DHT22;64862;54.398;10.126;2022-12-07T14:37:51;3.50;99.90
16968;DHT22;64862;54.398;10.126;2022-12-07T14:40:20;3.50;99.90
16968;DHT22;64862;54.398;10.126;2022-12-07T14:42:50;3.40;99.90
16968;DHT22;64862;54.398;10.126;2022-12-07T14:45:19;3.40;99.90
16968;DHT22;64862;54.398;10.126;2022-12-07T14:47:46;3.30;99.90
16968;DHT22;64862;54.398;10.126;2022-12-07T14:50:15;3.30;99.90
16968;DHT22;64862;54.398;10.126;2022-12-07T14:52:47;3.30;99.90
16968;DHT22;64862;54.398;10.126;2022-12-07T14:55:23;3.30;99.90
16968;DHT22;64862;54.398;10.126;2022-12-07T14:57:52;3.30;99.90
16968;DHT22;64862;54.398;10.126;2022-12-07T15:00:20;3.30;99.90
16968;DHT22;64862;54.398;10.126;2022-12-07T15:02:48;3.10;99.90
16968;DHT22;64862;54.398;10.126;2022-12-07T15:05:18;3.10;99.90
16968;DHT22;64862;54.398;10.126;2022-12-07T15:07:46;3.10;99.90
16968;DHT22;64862;54.398;10.126;2022-12-07T15:10:16;3.00;99.90
16968;DHT22;64862;54.398;10.126;2022-12-07T15:12:44;3.00;99.90
16968;DHT22;64862;54.398;10.126;2022-12-07T15:15:13;2.90;99.90
16968;DHT22;64862;54.398;10.126;2022-12-07T15:17:40;2.90;99.90
16968;DHT22;64862;54.398;10.126;2022-12-07T15:20:12;2.80;99.90
16968;DHT22;64862;54.398;10.126;2022-12-07T15:22:40;2.80;99.90
16968;DHT22;64862;54.398;10.126;2022-12-07T15:25:15;2.80;99.90
16968;DHT22;64862;54.398;10.126;2022-12-07T15:27:42;2.80;99.90
16968;DHT22;64862;54.398;10.126;2022-12-07T15:30:09;2.80;99.90
16968;DHT22;64862;54.398;10.126;2022-12-07T15:32:40;2.80;99.90
16968;DHT22;64862;54.398;10.126;2022-12-07T15:35:08;2.80;99.90
16968;DHT22;64862;54.398;10.126;2022-12-07T15:37:35;2.70;99.90
16968;DHT22;64862;54.398;10.126;2022-12-07T15:40:02;2.70;99.90
16968;DHT22;64862;54.398;10.126;2022-12-07T15:42:29;2.60;99.90
16968;DHT22;64862;54.398;10.126;2022-12-07T15:44:56;2.60;99.90
16968;DHT22;64862;54.398;10.126;2022-12-07T15:47:34;2.60;99.90
16968;DHT22;64862;54.398;10.126;2022-12-07T15:50:09;2.50;99.90
16968;DHT22;64862;54.398;10.126;2022-12-07T15:52:37;2.50;99.90
16968;DHT22;64862;54.398;10.126;2022-12-07T15:55:05;2.50;99.90
16968;DHT22;64862;54.398;10.126;2022-12-07T15:57:33;2.50;99.90
16968;DHT22;64862;54.398;10.126;2022-12-07T16:00:00;2.40;99.90
16968;DHT22;64862;54.398;10.126;2022-12-07T16:02:30;2.40;99.90
16968;DHT22;64862;54.398;10.126;2022-12-07T16:04:57;2.30;99.90
16968;DHT22;64862;54.398;10.126;2022-12-07T16:07:25;2.30;99.90